createdAt,value
2019-02-28T00:00:09.834Z,4.53
2019-02-28T00:05:06.072Z,4.93
2019-02-28T00:10:03.619Z,4.90
2019-02-28T00:14:59.881Z,4.77
2019-02-28T00:19:58.002Z,5.27
2019-02-28T00:24:53.397Z,4.70
2019-02-28T00:29:49.343Z,4.80
2019-02-28T00:39:41.069Z,4.63
2019-02-28T00:44:36.765Z,4.70
2019-02-28T00:49:32.795Z,5.00
2019-02-28T00:54:28.504Z,5.47
2019-02-28T00:59:24.629Z,5.17
2019-02-28T01:04:20.304Z,5.03
2019-02-28T01:09:16.468Z,5.10
2019-02-28T01:14:12.205Z,4.73
2019-02-28T01:24:03.703Z,4.93
2019-02-28T01:29:01.898Z,5.60
2019-02-28T01:33:58.783Z,5.40
2019-02-28T01:38:58.083Z,5.50
2019-02-28T01:43:53.448Z,5.40
2019-02-28T01:48:49.175Z,5.63
2019-02-28T01:58:40.599Z,5.50
2019-02-28T02:03:36.340Z,5.73
2019-02-28T02:08:32.297Z,5.70
2019-02-28T02:13:27.975Z,4.97
2019-02-28T02:18:23.834Z,4.93
2019-02-28T02:23:19.536Z,5.03
2019-02-28T02:33:14.441Z,5.80
2019-02-28T02:38:08.963Z,5.23
2019-02-28T02:43:05.754Z,5.73
2019-02-28T02:48:05.177Z,5.73
2019-02-28T02:53:05.088Z,6.40
2019-02-28T02:57:57.284Z,5.47
2019-02-28T03:02:53.162Z,5.90
2019-02-28T03:07:48.941Z,5.57
2019-02-28T03:12:45.151Z,5.47
2019-02-28T03:17:46.538Z,6.00
2019-02-28T03:22:38.836Z,5.53
2019-02-28T03:27:34.508Z,5.73
2019-02-28T03:32:39.363Z,5.13
2019-02-28T03:37:32.795Z,6.10
2019-02-28T03:47:24.128Z,6.30
2019-02-28T03:52:20.429Z,6.00
2019-02-28T03:57:16.085Z,6.07
2019-02-28T04:02:12.243Z,6.60
2019-02-28T04:07:08.008Z,5.90
2019-02-28T04:12:08.684Z,5.87
2019-02-28T04:17:01.444Z,6.27
2019-02-28T04:21:57.322Z,5.80
2019-02-28T04:26:53.014Z,5.30
2019-02-28T04:31:51.314Z,5.90
2019-02-28T04:36:46.961Z,6.03
2019-02-28T04:41:42.799Z,6.27
2019-02-28T04:46:38.495Z,6.30
2019-02-28T04:51:37.062Z,5.87
2019-02-28T04:56:32.830Z,5.67
2019-02-28T05:01:28.983Z,6.00
2019-02-28T05:06:24.667Z,5.70
2019-02-28T05:11:20.543Z,5.37
2019-02-28T05:16:16.500Z,7.70
2019-02-28T05:21:12.638Z,7.40
2019-02-28T05:26:08.305Z,7.53
2019-02-28T05:31:04.441Z,7.07
2019-02-28T05:36:01.880Z,7.00
2019-02-28T05:40:58.149Z,6.67
2019-02-28T05:45:54.095Z,7.27
2019-02-28T05:50:53.200Z,6.43
2019-02-28T05:55:47.994Z,6.70
2019-02-28T06:00:43.873Z,6.63
2019-02-28T06:05:39.575Z,6.90
2019-02-28T06:10:35.497Z,6.50
2019-02-28T06:15:34.273Z,8.70
2019-02-28T06:20:29.467Z,7.57
2019-02-28T06:25:25.808Z,7.07
2019-02-28T06:30:21.805Z,7.37
2019-02-28T06:35:20.368Z,7.50
2019-02-28T06:40:15.930Z,8.13
2019-02-28T06:45:12.805Z,8.67
2019-02-28T06:50:14.286Z,9.47
2019-02-28T06:55:13.359Z,8.93
2019-02-28T07:00:13.525Z,9.63
2019-02-28T07:05:08.230Z,10.67
2019-02-28T07:10:09.711Z,12.50
2019-02-28T07:15:07.230Z,12.20
2019-02-28T07:20:05.175Z,8.57
2019-02-28T07:25:00.919Z,8.50
2019-02-28T07:29:56.787Z,7.63
2019-02-28T07:34:57.752Z,7.30
2019-02-28T07:39:51.566Z,9.40
2019-02-28T07:44:47.581Z,9.07
2019-02-28T07:49:43.433Z,9.90
2019-02-28T07:54:39.318Z,10.50
2019-02-28T07:59:40.843Z,10.07
2019-02-28T08:04:33.367Z,10.33
2019-02-28T08:09:29.318Z,9.87
2019-02-28T08:14:25.665Z,10.23
2019-02-28T08:19:22.829Z,11.10
2019-02-28T08:29:14.705Z,12.43
2019-02-28T08:34:10.401Z,12.58
2019-02-28T08:39:09.701Z,11.95
2019-02-28T08:44:05.451Z,13.65
2019-02-28T08:49:06.078Z,13.70
2019-02-28T08:53:59.044Z,13.72
2019-02-28T08:58:54.928Z,13.58
2019-02-28T09:03:51.213Z,14.50
2019-02-28T09:08:47.430Z,14.70
2019-02-28T09:13:43.649Z,16.02
2019-02-28T09:18:40.051Z,16.55
2019-02-28T09:23:37.555Z,17.23
2019-02-28T09:28:33.809Z,16.45
2019-02-28T09:33:29.579Z,16.97
2019-02-28T09:38:25.493Z,18.20
2019-02-28T09:43:23.979Z,17.52
2019-02-28T09:48:19.221Z,19.00
2019-02-28T09:53:16.506Z,19.57
2019-02-28T09:58:13.293Z,20.45
2019-02-28T10:03:08.997Z,20.62
2019-02-28T10:08:07.061Z,20.62
2019-02-28T10:13:02.862Z,20.95
2019-02-28T10:18:00.654Z,20.40
2019-02-28T10:22:56.686Z,19.37
2019-02-28T10:27:54.522Z,22.13
2019-02-28T10:32:50.706Z,21.42
2019-02-28T10:37:47.293Z,20.92
2019-02-28T10:42:42.973Z,20.65
2019-02-28T10:47:38.843Z,20.80
2019-02-28T10:52:34.625Z,19.90
2019-02-28T10:57:30.709Z,21.35
2019-02-28T11:02:27.707Z,19.98
2019-02-28T11:07:23.939Z,18.12
2019-02-28T11:12:20.403Z,17.75
2019-02-28T11:17:17.399Z,18.62
2019-02-28T11:22:13.295Z,19.73
2019-02-28T11:27:09.543Z,20.27
2019-02-28T11:32:05.238Z,20.17
2019-02-28T11:37:01.114Z,17.87
2019-02-28T11:41:56.812Z,17.82
2019-02-28T11:46:52.921Z,18.20
2019-02-28T11:51:49.361Z,18.55
2019-02-28T11:56:46.384Z,16.87
2019-02-28T12:01:42.898Z,17.87
2019-02-28T12:06:40.033Z,17.82
2019-02-28T12:11:36.536Z,16.97
2019-02-28T12:16:35.173Z,17.32
2019-02-28T12:21:30.799Z,17.20
2019-02-28T12:26:26.810Z,16.82
2019-02-28T12:31:22.509Z,15.50
2019-02-28T12:36:18.623Z,15.88
2019-02-28T12:41:14.545Z,15.85
2019-02-28T12:46:10.549Z,14.65
2019-02-28T12:51:06.910Z,14.03
2019-02-28T12:56:02.801Z,13.68
2019-02-28T13:01:00.829Z,14.45
2019-02-28T13:10:52.682Z,15.23
2019-02-28T13:15:49.301Z,15.88
2019-02-28T13:20:45.328Z,16.42
2019-02-28T13:25:41.005Z,16.02
2019-02-28T13:30:39.843Z,16.52
2019-02-28T13:35:35.737Z,16.07
2019-02-28T13:40:31.641Z,16.80
2019-02-28T13:45:27.425Z,17.02
2019-02-28T13:50:25.705Z,17.60
2019-02-28T13:55:22.529Z,17.73
2019-02-28T14:00:28.552Z,17.45
2019-02-28T14:05:24.667Z,18.27
2019-02-28T14:10:21.355Z,16.23
2019-02-28T14:15:18.453Z,17.12
2019-02-28T14:20:14.598Z,17.03
2019-02-28T14:25:10.867Z,16.32
2019-02-28T14:30:08.565Z,17.80
2019-02-28T14:35:05.747Z,16.70
2019-02-28T14:40:01.835Z,16.70
2019-02-28T14:44:57.524Z,16.37
2019-02-28T14:49:53.409Z,15.68
2019-02-28T14:54:50.291Z,16.42
2019-02-28T14:59:46.429Z,16.87
2019-02-28T15:04:42.827Z,17.20
2019-02-28T15:09:39.875Z,17.27
2019-02-28T15:14:35.646Z,17.37
2019-02-28T15:19:31.532Z,16.35
2019-02-28T15:24:27.783Z,15.65
2019-02-28T15:29:24.610Z,15.72
2019-02-28T15:34:22.409Z,15.68
2019-02-28T15:39:18.490Z,15.40
2019-02-28T15:44:14.330Z,15.48
2019-02-28T15:49:10.990Z,14.00
2019-02-28T15:54:07.216Z,15.85
2019-02-28T15:59:03.559Z,15.05
2019-02-28T16:03:59.251Z,15.33
2019-02-28T16:08:55.464Z,16.90
2019-02-28T16:13:51.503Z,16.60
2019-02-28T16:18:47.988Z,15.40
2019-02-28T16:23:43.670Z,15.90
2019-02-28T16:28:42.564Z,17.87
2019-02-28T16:33:37.135Z,17.40
2019-02-28T16:38:33.260Z,16.27
2019-02-28T16:43:29.559Z,17.77
2019-02-28T16:48:25.694Z,18.23
2019-02-28T16:53:23.725Z,17.17
2019-02-28T16:58:21.989Z,18.27
2019-02-28T17:03:17.657Z,17.20
2019-02-28T17:08:15.562Z,17.20
2019-02-28T17:13:16.197Z,17.63
2019-02-28T17:18:18.463Z,18.83
2019-02-28T17:23:14.486Z,18.77
2019-02-28T17:28:16.083Z,19.77
2019-02-28T17:33:12.539Z,20.27
2019-02-28T17:38:08.405Z,19.43
2019-02-28T17:43:04.686Z,20.80
2019-02-28T17:48:20.669Z,19.70
2019-02-28T17:53:34.803Z,19.70
2019-02-28T17:58:38.583Z,20.80
2019-02-28T18:03:36.182Z,20.10
2019-02-28T18:08:40.055Z,19.67
2019-02-28T18:13:55.220Z,19.73
2019-02-28T18:19:09.307Z,21.03
2019-02-28T18:24:12.947Z,20.70
2019-02-28T18:29:13.597Z,20.80
2019-02-28T18:34:09.747Z,20.13
2019-02-28T18:39:08.186Z,19.57
2019-02-28T18:44:04.959Z,19.77
2019-02-28T18:49:00.881Z,19.73
2019-02-28T18:53:57.145Z,19.87
2019-02-28T18:58:52.838Z,18.80
2019-02-28T19:03:49.260Z,17.67
2019-02-28T19:08:44.940Z,18.23
2019-02-28T19:13:40.963Z,18.73
2019-02-28T19:18:36.654Z,18.07
2019-02-28T19:23:32.625Z,15.67
2019-02-28T19:28:28.670Z,16.70
2019-02-28T19:33:24.871Z,16.53
2019-02-28T19:38:20.556Z,16.60
2019-02-28T19:43:16.476Z,16.27
2019-02-28T19:48:12.217Z,16.27
2019-02-28T19:53:08.106Z,18.37
2019-02-28T19:58:04.011Z,17.67
2019-02-28T20:02:59.858Z,18.07
2019-02-28T20:07:55.637Z,19.23
2019-02-28T20:12:51.779Z,17.53
2019-02-28T20:17:47.562Z,17.47
2019-02-28T20:22:43.599Z,17.50
2019-02-28T20:27:39.370Z,15.90
2019-02-28T20:32:35.140Z,14.70
2019-02-28T20:37:30.822Z,14.73
2019-02-28T20:42:26.860Z,13.13
2019-02-28T20:47:22.595Z,12.73
2019-02-28T20:52:18.311Z,12.00
2019-02-28T20:57:14.031Z,10.87
2019-02-28T21:02:11.108Z,11.00
2019-02-28T21:07:06.783Z,12.37
2019-02-28T21:12:02.533Z,11.63
2019-02-28T21:16:59.461Z,11.90
2019-02-28T21:21:55.347Z,11.07
2019-02-28T21:26:51.039Z,11.67
2019-02-28T21:31:46.921Z,13.93
2019-02-28T21:36:42.608Z,11.47
2019-02-28T21:41:38.475Z,8.57
2019-02-28T21:46:34.463Z,12.07
2019-02-28T21:51:30.469Z,7.17
2019-02-28T21:56:26.399Z,6.67
2019-02-28T22:01:22.475Z,6.23
2019-02-28T22:06:18.143Z,6.30
2019-02-28T22:11:14.226Z,7.40
2019-02-28T22:16:09.921Z,8.00
2019-02-28T22:21:05.763Z,8.23
2019-02-28T22:26:01.429Z,7.87
2019-02-28T22:30:59.206Z,9.00
2019-02-28T22:35:59.759Z,8.97
2019-02-28T22:40:55.609Z,9.73
2019-02-28T22:45:51.310Z,10.77
2019-02-28T22:55:43.646Z,10.57
2019-02-28T23:00:46.537Z,10.03
2019-02-28T23:05:42.233Z,9.77
2019-02-28T23:10:38.263Z,9.03
2019-02-28T23:15:34.045Z,8.90
2019-02-28T23:20:30.115Z,8.37
2019-02-28T23:25:25.795Z,7.67
2019-02-28T23:30:23.806Z,7.00
2019-02-28T23:35:20.881Z,7.47
2019-02-28T23:40:16.747Z,7.60
2019-02-28T23:45:12.448Z,6.27
2019-02-28T23:50:08.771Z,6.43
2019-02-28T23:55:05.741Z,6.40
